createdAt,value
2022-10-30T00:00:47.093Z,9.10
2022-10-30T00:03:15.064Z,9.19
2022-10-30T00:05:47.394Z,9.09
2022-10-30T00:08:16.654Z,9.11
2022-10-30T00:10:44.358Z,8.97
2022-10-30T00:13:12.341Z,9.02
2022-10-30T00:15:39.294Z,8.81
2022-10-30T00:18:06.308Z,9.05
2022-10-30T00:20:33.299Z,8.95
2022-10-30T00:23:00.477Z,8.76
2022-10-30T00:25:27.650Z,8.74
2022-10-30T00:27:54.553Z,8.92
2022-10-30T00:30:21.468Z,8.85
2022-10-30T00:32:48.395Z,8.65
2022-10-30T00:35:15.719Z,8.84
2022-10-30T00:37:42.564Z,8.82
2022-10-30T00:40:15.390Z,8.84
2022-10-30T00:42:43.145Z,8.82
2022-10-30T00:45:14.919Z,8.82
2022-10-30T00:47:54.908Z,8.66
2022-10-30T00:50:30.800Z,8.83
2022-10-30T00:53:03.308Z,8.78
2022-10-30T00:55:38.234Z,8.88
2022-10-30T00:58:07.987Z,8.82
2022-10-30T01:00:39.399Z,8.68
2022-10-30T01:03:06.546Z,8.90
2022-10-30T01:05:34.775Z,8.82
2022-10-30T01:08:01.961Z,8.84
2022-10-30T01:10:29.096Z,8.90
2022-10-30T01:12:58.748Z,8.94
2022-10-30T01:15:35.442Z,8.77
2022-10-30T01:18:18.235Z,8.84
2022-10-30T01:20:54.366Z,8.87
2022-10-30T01:23:46.021Z,8.89
2022-10-30T01:26:28.823Z,8.85
2022-10-30T01:29:07.270Z,8.85
2022-10-30T01:31:41.489Z,8.62
2022-10-30T01:34:47.605Z,8.74
2022-10-30T01:37:39.224Z,8.44
2022-10-30T01:40:12.141Z,8.46
2022-10-30T01:42:44.373Z,8.66
2022-10-30T01:45:19.772Z,8.40
2022-10-30T01:47:49.751Z,8.68
2022-10-30T01:50:22.683Z,8.78
2022-10-30T01:53:08.549Z,8.73
2022-10-30T01:55:57.794Z,8.59
2022-10-30T01:58:42.265Z,8.64
2022-10-30T02:01:09.350Z,8.54
2022-10-30T02:03:36.663Z,8.50
2022-10-30T02:06:03.750Z,8.48
2022-10-30T02:08:30.762Z,8.60
2022-10-30T02:10:58.846Z,8.51
2022-10-30T02:13:39.627Z,8.38
2022-10-30T02:16:09.049Z,8.58
2022-10-30T02:18:36.421Z,8.62
2022-10-30T02:21:03.830Z,8.41
2022-10-30T02:23:33.301Z,8.34
2022-10-30T02:26:00.275Z,8.20
2022-10-30T02:28:27.876Z,8.46
2022-10-30T02:30:55.109Z,8.11
2022-10-30T02:33:23.570Z,8.45
2022-10-30T02:35:51.513Z,8.52
2022-10-30T02:38:18.886Z,8.47
2022-10-30T02:40:45.857Z,8.40
2022-10-30T02:43:12.794Z,8.32
2022-10-30T02:45:39.679Z,8.28
2022-10-30T02:48:07.557Z,8.26
2022-10-30T02:50:34.603Z,8.14
2022-10-30T02:53:01.605Z,8.22
2022-10-30T02:55:28.773Z,8.07
2022-10-30T02:57:55.815Z,7.66
2022-10-30T03:00:22.779Z,7.76
2022-10-30T03:02:55.058Z,7.93
2022-10-30T03:05:22.445Z,8.03
2022-10-30T03:07:49.710Z,8.06
2022-10-30T03:10:16.681Z,7.96
2022-10-30T03:12:43.935Z,7.92
2022-10-30T03:15:11.231Z,7.93
2022-10-30T03:17:38.175Z,7.99
2022-10-30T03:20:05.485Z,7.95
2022-10-30T03:22:33.349Z,7.71
2022-10-30T03:25:00.294Z,7.76
2022-10-30T03:27:27.285Z,7.90
2022-10-30T03:29:54.174Z,7.83
2022-10-30T03:32:21.150Z,7.58
2022-10-30T03:34:53.068Z,7.90
2022-10-30T03:37:20.074Z,7.50
2022-10-30T03:39:47.001Z,7.80
2022-10-30T03:42:13.848Z,7.59
2022-10-30T03:44:40.797Z,7.71
2022-10-30T03:47:08.459Z,7.77
2022-10-30T03:49:40.328Z,7.86
2022-10-30T03:52:11.165Z,7.77
2022-10-30T03:54:38.039Z,7.63
2022-10-30T03:57:04.985Z,7.51
2022-10-30T03:59:41.325Z,7.60
2022-10-30T04:02:40.378Z,7.57
2022-10-30T04:05:09.024Z,7.42
2022-10-30T04:07:35.931Z,7.54
2022-10-30T04:10:03.144Z,7.24
2022-10-30T04:12:30.141Z,7.38
2022-10-30T04:14:57.053Z,7.55
2022-10-30T04:17:23.983Z,7.37
2022-10-30T04:19:51.059Z,7.46
2022-10-30T04:22:18.004Z,7.33
2022-10-30T04:24:45.479Z,6.93
2022-10-30T04:27:13.449Z,7.15
2022-10-30T04:29:42.224Z,7.30
2022-10-30T04:32:10.754Z,7.33
2022-10-30T04:34:39.542Z,7.07
2022-10-30T04:37:07.290Z,7.13
2022-10-30T04:39:34.287Z,6.91
2022-10-30T04:42:13.266Z,7.30
2022-10-30T04:44:42.358Z,7.32
2022-10-30T04:47:10.777Z,7.14
2022-10-30T04:49:38.144Z,7.28
2022-10-30T04:52:05.033Z,7.29
2022-10-30T04:54:32.008Z,7.28
2022-10-30T04:56:59.156Z,7.28
2022-10-30T04:59:26.101Z,6.74
2022-10-30T05:01:54.424Z,6.90
2022-10-30T05:04:21.502Z,6.99
2022-10-30T05:06:48.533Z,7.22
2022-10-30T05:09:16.252Z,7.14
2022-10-30T05:11:43.209Z,7.09
2022-10-30T05:14:10.154Z,6.87
2022-10-30T05:16:38.128Z,7.07
2022-10-30T05:19:05.487Z,6.88
2022-10-30T05:21:34.065Z,6.80
2022-10-30T05:24:01.380Z,6.92
2022-10-30T05:26:34.278Z,7.00
2022-10-30T05:29:01.278Z,6.99
2022-10-30T05:31:28.744Z,6.97
2022-10-30T05:34:14.155Z,7.12
2022-10-30T05:36:41.926Z,6.99
2022-10-30T05:39:10.136Z,7.08
2022-10-30T05:41:41.001Z,7.18
2022-10-30T05:44:08.296Z,7.04
2022-10-30T05:46:35.215Z,6.89
2022-10-30T05:49:18.272Z,7.05
2022-10-30T05:51:45.439Z,7.19
2022-10-30T05:54:12.621Z,7.23
2022-10-30T05:56:51.125Z,7.22
2022-10-30T05:59:18.261Z,7.21
2022-10-30T06:04:12.865Z,7.06
2022-10-30T06:06:40.623Z,7.29
2022-10-30T06:09:07.522Z,7.10
2022-10-30T06:11:54.501Z,7.10
2022-10-30T06:14:28.909Z,7.14
2022-10-30T06:16:55.902Z,7.41
2022-10-30T06:19:31.786Z,7.42
2022-10-30T06:22:11.426Z,7.57
2022-10-30T06:24:46.107Z,7.60
2022-10-30T06:27:36.417Z,7.60
2022-10-30T06:30:06.262Z,7.62
2022-10-30T06:32:33.410Z,7.44
2022-10-30T06:35:00.591Z,7.38
2022-10-30T06:37:28.322Z,7.30
2022-10-30T06:39:55.304Z,7.91
2022-10-30T06:42:46.411Z,7.84
2022-10-30T06:45:28.970Z,7.88
2022-10-30T06:47:56.642Z,8.00
2022-10-30T06:50:24.555Z,8.13
2022-10-30T06:52:51.816Z,8.20
2022-10-30T06:55:18.758Z,8.47
2022-10-30T06:58:04.445Z,8.63
2022-10-30T07:00:42.069Z,8.80
2022-10-30T07:03:32.779Z,8.62
2022-10-30T07:05:59.870Z,9.12
2022-10-30T07:08:27.122Z,9.06
2022-10-30T07:10:57.973Z,9.47
2022-10-30T07:13:53.985Z,9.53
2022-10-30T07:16:35.591Z,9.84
2022-10-30T07:19:04.729Z,10.07
2022-10-30T07:21:33.494Z,9.93
2022-10-30T07:24:05.338Z,9.96
2022-10-30T07:26:44.333Z,10.52
2022-10-30T07:29:40.321Z,10.66
2022-10-30T07:32:32.962Z,10.93
2022-10-30T07:35:35.567Z,10.84
2022-10-30T07:38:37.880Z,10.62
2022-10-30T07:41:25.260Z,11.47
2022-10-30T07:44:12.003Z,11.49
2022-10-30T07:46:46.902Z,11.60
2022-10-30T07:49:32.273Z,12.02
2022-10-30T07:52:05.263Z,12.13
2022-10-30T07:54:32.481Z,12.19
2022-10-30T07:57:09.509Z,12.23
2022-10-30T08:00:07.366Z,12.55
2022-10-30T08:02:40.614Z,12.58
2022-10-30T08:05:20.058Z,12.77
2022-10-30T08:08:05.134Z,13.06
2022-10-30T08:10:32.191Z,13.25
2022-10-30T08:12:59.137Z,13.35
2022-10-30T08:15:26.187Z,13.21
2022-10-30T08:17:54.385Z,13.39
2022-10-30T08:20:24.426Z,13.73
2022-10-30T08:22:57.090Z,13.54
2022-10-30T08:25:30.623Z,13.89
2022-10-30T08:27:58.148Z,14.13
2022-10-30T08:30:30.170Z,14.31
2022-10-30T08:33:03.724Z,14.14
2022-10-30T08:35:58.054Z,14.50
2022-10-30T08:38:27.357Z,14.63
2022-10-30T08:41:12.398Z,14.51
2022-10-30T08:43:46.267Z,14.74
2022-10-30T08:46:13.266Z,14.98
2022-10-30T08:48:41.072Z,14.86
2022-10-30T08:51:08.131Z,15.16
2022-10-30T08:53:38.017Z,15.07
2022-10-30T08:56:10.003Z,15.26
2022-10-30T08:58:57.180Z,15.49
2022-10-30T09:01:24.142Z,15.55
2022-10-30T09:04:20.426Z,15.25
2022-10-30T09:07:19.482Z,15.77
2022-10-30T09:10:05.036Z,15.98
2022-10-30T09:12:34.204Z,16.02
2022-10-30T09:15:01.706Z,15.68
2022-10-30T09:17:30.760Z,16.10
2022-10-30T09:19:57.641Z,16.41
2022-10-30T09:22:33.852Z,16.49
2022-10-30T09:25:01.888Z,16.50
2022-10-30T09:27:47.414Z,16.27
2022-10-30T09:30:16.348Z,16.40
2022-10-30T09:32:46.674Z,16.64
2022-10-30T09:35:19.001Z,16.92
2022-10-30T09:37:45.982Z,17.13
2022-10-30T09:40:29.917Z,17.27
2022-10-30T09:43:08.875Z,17.18
2022-10-30T09:45:57.410Z,17.30
2022-10-30T09:48:46.307Z,17.45
2022-10-30T09:51:20.205Z,17.52
2022-10-30T09:54:00.546Z,17.61
2022-10-30T09:56:40.057Z,17.55
2022-10-30T09:59:28.455Z,17.86
2022-10-30T10:02:04.364Z,17.92
2022-10-30T10:05:06.315Z,17.94
2022-10-30T10:08:02.487Z,18.18
2022-10-30T10:10:53.467Z,17.83
2022-10-30T10:13:36.233Z,18.26
2022-10-30T10:16:36.768Z,18.50
2022-10-30T10:19:09.829Z,18.52
2022-10-30T10:21:44.101Z,18.39
2022-10-30T10:24:38.634Z,18.67
2022-10-30T10:27:56.166Z,18.70
2022-10-30T10:30:24.971Z,18.80
2022-10-30T10:33:07.029Z,18.88
2022-10-30T10:35:42.129Z,18.78
2022-10-30T10:38:15.174Z,19.04
2022-10-30T10:40:57.398Z,19.12
2022-10-30T10:43:53.915Z,19.16
2022-10-30T10:46:39.239Z,19.28
2022-10-30T10:49:08.761Z,19.32
2022-10-30T10:51:42.318Z,19.35
2022-10-30T10:54:22.726Z,19.44
2022-10-30T10:56:52.068Z,19.28
2022-10-30T10:59:30.232Z,19.35
2022-10-30T11:02:36.147Z,19.50
2022-10-30T11:05:43.136Z,19.48
2022-10-30T11:08:22.700Z,19.53
2022-10-30T11:10:56.812Z,19.57
2022-10-30T11:13:27.920Z,19.70
2022-10-30T11:16:36.896Z,19.81
2022-10-30T11:19:08.185Z,19.87
2022-10-30T11:21:42.091Z,19.88
2022-10-30T11:24:29.654Z,19.92
2022-10-30T11:26:58.744Z,19.70
2022-10-30T11:29:30.123Z,19.68
2022-10-30T11:32:05.775Z,19.84
2022-10-30T11:34:36.373Z,19.93
2022-10-30T11:37:04.744Z,19.94
2022-10-30T11:39:35.675Z,19.93
2022-10-30T11:42:04.820Z,20.01
2022-10-30T11:44:36.209Z,20.05
2022-10-30T11:47:04.855Z,20.10
2022-10-30T11:49:45.059Z,20.10
2022-10-30T11:52:15.143Z,20.14
2022-10-30T11:54:48.476Z,20.04
2022-10-30T11:57:18.149Z,20.14
2022-10-30T11:59:47.459Z,20.05
2022-10-30T12:02:22.388Z,20.10
2022-10-30T12:04:51.592Z,20.13
2022-10-30T12:07:24.305Z,19.99
2022-10-30T12:09:51.491Z,20.06
2022-10-30T12:12:18.320Z,20.14
2022-10-30T12:14:45.327Z,20.04
2022-10-30T12:17:15.928Z,20.27
2022-10-30T12:19:49.665Z,20.07
2022-10-30T12:22:31.583Z,19.94
2022-10-30T12:25:02.201Z,20.19
2022-10-30T12:27:31.998Z,20.34
2022-10-30T12:30:09.912Z,20.46
2022-10-30T12:32:47.108Z,20.24
2022-10-30T12:35:26.025Z,20.27
2022-10-30T12:37:54.943Z,19.93
2022-10-30T12:40:28.304Z,19.66
2022-10-30T12:43:12.019Z,19.92
2022-10-30T12:45:45.643Z,20.15
2022-10-30T12:48:22.152Z,20.12
2022-10-30T12:51:15.937Z,19.87
2022-10-30T12:54:12.294Z,19.88
2022-10-30T12:56:44.564Z,20.13
2022-10-30T12:59:39.534Z,20.23
2022-10-30T13:02:30.395Z,20.23
2022-10-30T13:05:02.749Z,20.29
2022-10-30T13:07:55.616Z,20.40
2022-10-30T13:11:14.900Z,20.33
2022-10-30T13:13:48.499Z,20.55
2022-10-30T13:16:36.216Z,20.42
2022-10-30T13:19:04.053Z,20.69
2022-10-30T13:21:51.755Z,20.58
2022-10-30T13:24:28.941Z,20.39
2022-10-30T13:27:10.305Z,20.46
2022-10-30T13:30:09.825Z,20.56
2022-10-30T13:33:07.943Z,20.57
2022-10-30T13:35:43.686Z,20.41
2022-10-30T13:38:16.217Z,20.36
2022-10-30T13:40:49.510Z,20.25
2022-10-30T13:43:25.249Z,20.39
2022-10-30T13:46:24.523Z,20.19
2022-10-30T13:49:08.823Z,20.31
2022-10-30T13:51:45.776Z,20.30
2022-10-30T13:54:39.441Z,20.26
2022-10-30T13:57:20.365Z,20.09
2022-10-30T13:59:50.565Z,20.10
2022-10-30T14:02:43.799Z,20.08
2022-10-30T14:05:41.837Z,19.98
2022-10-30T14:08:37.825Z,19.64
2022-10-30T14:11:14.107Z,19.69
2022-10-30T14:13:58.536Z,19.52
2022-10-30T14:16:42.124Z,19.45
2022-10-30T14:19:16.536Z,19.35
2022-10-30T14:21:44.687Z,19.10
2022-10-30T14:24:19.866Z,18.76
2022-10-30T14:26:52.702Z,18.54
2022-10-30T14:29:35.706Z,18.55
2022-10-30T14:32:14.614Z,18.38
2022-10-30T14:34:50.512Z,17.88
2022-10-30T14:37:38.509Z,17.87
2022-10-30T14:40:34.455Z,18.07
2022-10-30T14:43:08.730Z,17.95
2022-10-30T14:45:49.641Z,17.41
2022-10-30T14:48:26.891Z,17.54
2022-10-30T14:51:03.891Z,17.52
2022-10-30T14:53:53.094Z,17.51
2022-10-30T14:56:47.969Z,17.44
2022-10-30T14:59:14.801Z,17.49
2022-10-30T15:01:44.884Z,17.45
2022-10-30T15:04:30.677Z,17.33
2022-10-30T15:07:16.459Z,17.18
2022-10-30T15:10:05.081Z,17.10
2022-10-30T15:13:02.191Z,17.11
2022-10-30T15:15:30.221Z,17.06
2022-10-30T15:18:01.569Z,16.89
2022-10-30T15:20:34.102Z,16.64
2022-10-30T15:23:04.858Z,16.83
2022-10-30T15:25:37.027Z,16.84
2022-10-30T15:28:04.525Z,16.84
2022-10-30T15:30:31.427Z,16.73
2022-10-30T15:32:58.720Z,16.38
2022-10-30T15:35:28.161Z,16.45
2022-10-30T15:38:05.337Z,16.57
2022-10-30T15:40:35.065Z,16.58
2022-10-30T15:43:04.877Z,16.52
2022-10-30T15:45:41.318Z,16.36
2022-10-30T15:48:32.862Z,16.33
2022-10-30T15:51:01.203Z,16.25
2022-10-30T15:54:03.500Z,15.78
2022-10-30T15:56:59.859Z,16.20
2022-10-30T15:59:30.609Z,16.10
2022-10-30T16:01:58.851Z,16.02
2022-10-30T16:04:31.302Z,15.93
2022-10-30T16:07:04.566Z,15.95
2022-10-30T16:09:31.612Z,15.91
2022-10-30T16:12:00.729Z,15.70
2022-10-30T16:14:35.958Z,15.69
2022-10-30T16:17:06.406Z,15.61
2022-10-30T16:19:42.622Z,15.47
2022-10-30T16:22:16.566Z,15.13
2022-10-30T16:24:43.808Z,15.00
2022-10-30T16:27:21.711Z,15.02
2022-10-30T16:29:56.032Z,15.01
2022-10-30T16:32:26.304Z,14.72
2022-10-30T16:35:04.171Z,14.70
2022-10-30T16:37:36.597Z,14.62
2022-10-30T16:40:13.475Z,14.40
2022-10-30T16:42:40.796Z,14.75
2022-10-30T16:45:10.618Z,14.75
2022-10-30T16:47:41.055Z,14.69
2022-10-30T16:50:12.772Z,14.75
2022-10-30T16:52:39.760Z,14.39
2022-10-30T16:55:22.846Z,14.27
2022-10-30T16:57:58.565Z,14.35
2022-10-30T17:00:30.554Z,14.49
2022-10-30T17:03:11.331Z,14.26
2022-10-30T17:05:40.752Z,14.50
2022-10-30T17:08:31.288Z,14.46
2022-10-30T17:11:02.808Z,13.88
2022-10-30T17:13:36.484Z,14.42
2022-10-30T17:16:36.189Z,14.37
2022-10-30T17:19:38.705Z,14.41
2022-10-30T17:22:13.943Z,14.41
2022-10-30T17:24:41.024Z,14.35
2022-10-30T17:27:30.801Z,14.41
2022-10-30T17:29:57.974Z,14.42
2022-10-30T17:33:02.776Z,14.14
2022-10-30T17:35:30.144Z,14.52
2022-10-30T17:37:59.812Z,14.51
2022-10-30T17:40:29.762Z,14.17
2022-10-30T17:42:56.661Z,14.43
2022-10-30T17:45:23.519Z,14.18
2022-10-30T17:47:50.329Z,14.50
2022-10-30T17:50:17.582Z,14.41
2022-10-30T17:52:44.578Z,14.43
2022-10-30T17:55:25.396Z,14.41
2022-10-30T17:57:52.656Z,14.46
2022-10-30T18:00:19.962Z,14.31
2022-10-30T18:02:47.251Z,14.48
2022-10-30T18:05:20.035Z,14.44
2022-10-30T18:07:47.172Z,14.25
2022-10-30T18:10:14.599Z,14.56
2022-10-30T18:12:41.672Z,14.58
2022-10-30T18:15:35.812Z,14.57
2022-10-30T18:18:03.871Z,14.41
2022-10-30T18:20:31.318Z,14.54
2022-10-30T18:22:58.742Z,14.40
2022-10-30T18:25:33.423Z,14.18
2022-10-30T18:28:00.492Z,14.35
2022-10-30T18:30:29.174Z,14.36
2022-10-30T18:32:56.981Z,14.43
2022-10-30T18:35:37.999Z,14.47
2022-10-30T18:38:06.612Z,14.33
2022-10-30T18:40:33.624Z,14.18
2022-10-30T18:43:01.567Z,14.43
2022-10-30T18:45:41.028Z,14.09
2022-10-30T18:48:09.018Z,14.10
2022-10-30T18:50:37.154Z,14.13
2022-10-30T18:53:06.686Z,14.09
2022-10-30T18:55:36.652Z,14.38
2022-10-30T18:58:04.549Z,14.36
2022-10-30T19:00:45.060Z,14.37
2022-10-30T19:03:19.169Z,14.31
2022-10-30T19:05:47.353Z,14.30
2022-10-30T19:08:14.706Z,14.15
2022-10-30T19:10:44.769Z,14.13
2022-10-30T19:13:22.217Z,14.27
2022-10-30T19:15:59.942Z,14.25
2022-10-30T19:18:28.532Z,14.14
2022-10-30T19:21:04.496Z,14.23
2022-10-30T19:23:33.388Z,14.18
2022-10-30T19:26:00.443Z,14.05
2022-10-30T19:28:27.442Z,14.16
2022-10-30T19:30:54.976Z,14.20
2022-10-30T19:33:23.665Z,14.23
2022-10-30T19:35:58.444Z,14.02
2022-10-30T19:38:56.210Z,14.18
2022-10-30T19:41:25.034Z,14.19
2022-10-30T19:43:53.115Z,14.09
2022-10-30T19:46:21.018Z,14.10
2022-10-30T19:48:57.123Z,14.17
2022-10-30T19:51:25.493Z,13.96
2022-10-30T19:53:54.059Z,13.93
2022-10-30T19:56:21.755Z,14.10
2022-10-30T19:58:49.118Z,14.07
2022-10-30T20:01:16.474Z,13.85
2022-10-30T20:03:43.668Z,14.00
2022-10-30T20:06:14.348Z,14.06
2022-10-30T20:08:42.166Z,14.02
2022-10-30T20:11:09.065Z,14.01
2022-10-30T20:13:37.354Z,13.87
2022-10-30T20:16:05.410Z,14.04
2022-10-30T20:18:34.752Z,13.99
2022-10-30T20:21:04.692Z,13.97
2022-10-30T20:23:32.197Z,13.42
2022-10-30T20:26:25.199Z,13.88
2022-10-30T20:28:53.001Z,13.64
2022-10-30T20:35:44.110Z,13.62
2022-10-30T22:08:39.247Z,12.82
2022-10-30T22:11:10.899Z,12.66
2022-10-30T22:13:38.709Z,12.82
2022-10-30T22:19:01.664Z,12.81
2022-10-30T22:24:55.405Z,12.74
2022-10-30T22:27:22.333Z,12.77
2022-10-30T22:29:49.347Z,12.78
2022-10-30T22:32:16.314Z,12.79
2022-10-30T22:34:43.323Z,12.81
2022-10-30T22:37:10.223Z,12.84
2022-10-30T22:39:37.273Z,12.84
2022-10-30T22:42:04.216Z,12.81
2022-10-30T22:44:31.111Z,12.69
2022-10-30T22:46:58.007Z,12.64
2022-10-30T22:49:24.996Z,12.86
2022-10-30T22:51:51.855Z,12.95
2022-10-30T22:54:18.751Z,12.83
2022-10-30T22:56:45.558Z,12.71
2022-10-30T22:59:13.772Z,12.83
2022-10-30T23:01:41.982Z,12.87
2022-10-30T23:04:11.752Z,12.88
2022-10-30T23:06:38.787Z,12.85
2022-10-30T23:09:16.229Z,12.88
2022-10-30T23:16:01.716Z,12.86
2022-10-30T23:18:28.985Z,12.59
2022-10-30T23:21:01.149Z,12.71
2022-10-30T23:23:28.617Z,12.42
2022-10-30T23:25:55.696Z,12.37
2022-10-30T23:28:22.626Z,12.69
2022-10-30T23:30:49.566Z,12.75
2022-10-30T23:33:16.464Z,12.55
2022-10-30T23:35:43.402Z,12.44
2022-10-30T23:38:35.031Z,12.66
2022-10-30T23:41:01.913Z,12.65
2022-10-30T23:43:28.828Z,12.54
2022-10-30T23:45:55.775Z,12.53
2022-10-30T23:48:22.666Z,12.59
2022-10-30T23:50:49.535Z,12.49
2022-10-30T23:53:16.447Z,12.59
2022-10-30T23:55:54.638Z,12.66
2022-10-30T23:58:21.995Z,12.33
